sensor_id;sensor_type;location;lat;lon;timestamp;pressure;altitude;pressure_sealevel;temperature;humidity
29239;BME280;16267;48.194;11.546;2023-11-19T00:01:24;96034.88;;;6.05;99.75
29239;BME280;16267;48.194;11.546;2023-11-19T00:03:50;96037.56;;;6.09;100.00
29239;BME280;16267;48.194;11.546;2023-11-19T00:06:16;96032.66;;;6.11;100.00
29239;BME280;16267;48.194;11.546;2023-11-19T00:08:43;96029.97;;;6.11;100.00
29239;BME280;16267;48.194;11.546;2023-11-19T00:11:09;96022.38;;;6.13;100.00
29239;BME280;16267;48.194;11.546;2023-11-19T00:13:36;96012.84;;;6.12;100.00
29239;BME280;16267;48.194;11.546;2023-11-19T00:16:02;96003.72;;;6.13;100.00
29239;BME280;16267;48.194;11.546;2023-11-19T00:18:30;96000.69;;;6.14;100.00
29239;BME280;16267;48.194;11.546;2023-11-19T00:20:56;95991.94;;;6.14;100.00
29239;BME280;16267;48.194;11.546;2023-11-19T00:23:22;95988.13;;;6.15;100.00
29239;BME280;16267;48.194;11.546;2023-11-19T00:25:49;95988.91;;;6.15;100.00
29239;BME280;16267;48.194;11.546;2023-11-19T00:28:15;95985.84;;;6.17;100.00
29239;BME280;16267;48.194;11.546;2023-11-19T00:30:41;95990.03;;;6.18;100.00
29239;BME280;16267;48.194;11.546;2023-11-19T00:33:07;95987.03;;;6.19;100.00
29239;BME280;16267;48.194;11.546;2023-11-19T00:35:33;95976.00;;;6.21;100.00
29239;BME280;16267;48.194;11.546;2023-11-19T00:37:59;95975.63;;;6.22;100.00
29239;BME280;16267;48.194;11.546;2023-11-19T00:40:26;95976.00;;;6.24;100.00
29239;BME280;16267;48.194;11.546;2023-11-19T00:42:52;95964.97;;;6.26;100.00
29239;BME280;16267;48.194;11.546;2023-11-19T00:45:18;95967.28;;;6.28;99.84
29239;BME280;16267;48.194;11.546;2023-11-19T00:47:44;95965.00;;;6.30;100.00
29239;BME280;16267;48.194;11.546;2023-11-19T00:50:10;95961.59;;;6.29;100.00
29239;BME280;16267;48.194;11.546;2023-11-19T00:52:39;95955.50;;;6.32;100.00
29239;BME280;16267;48.194;11.546;2023-11-19T00:55:06;95942.53;;;6.31;100.00
29239;BME280;16267;48.194;11.546;2023-11-19T00:57:32;95939.88;;;6.31;100.00
29239;BME280;16267;48.194;11.546;2023-11-19T01:00:02;95942.19;;;6.32;100.00
29239;BME280;16267;48.194;11.546;2023-11-19T01:02:34;95949.78;;;6.30;100.00
29239;BME280;16267;48.194;11.546;2023-11-19T01:05:01;95943.66;;;6.26;100.00
29239;BME280;16267;48.194;11.546;2023-11-19T01:07:27;95945.16;;;6.23;100.00
29239;BME280;16267;48.194;11.546;2023-11-19T01:09:53;95939.47;;;6.25;100.00
29239;BME280;16267;48.194;11.546;2023-11-19T01:12:20;95934.13;;;6.29;100.00
29239;BME280;16267;48.194;11.546;2023-11-19T01:14:46;95933.38;;;6.32;100.00
29239;BME280;16267;48.194;11.546;2023-11-19T01:17:12;95934.94;;;6.36;100.00
29239;BME280;16267;48.194;11.546;2023-11-19T01:19:38;95936.88;;;6.39;100.00
29239;BME280;16267;48.194;11.546;2023-11-19T01:22:04;95926.94;;;6.36;100.00
29239;BME280;16267;48.194;11.546;2023-11-19T01:24:30;95928.06;;;6.32;100.00
29239;BME280;16267;48.194;11.546;2023-11-19T01:26:57;95918.94;;;6.33;100.00
29239;BME280;16267;48.194;11.546;2023-11-19T01:29:23;95913.63;;;6.33;100.00
29239;BME280;16267;48.194;11.546;2023-11-19T01:31:49;95914.31;;;6.22;100.00
29239;BME280;16267;48.194;11.546;2023-11-19T01:34:18;95920.06;;;6.32;100.00
29239;BME280;16267;48.194;11.546;2023-11-19T01:36:46;95916.56;;;6.20;100.00
29239;BME280;16267;48.194;11.546;2023-11-19T01:39:12;95919.69;;;6.33;100.00
29239;BME280;16267;48.194;11.546;2023-11-19T01:41:38;95913.16;;;6.20;100.00
29239;BME280;16267;48.194;11.546;2023-11-19T01:44:06;95910.13;;;6.21;100.00
29239;BME280;16267;48.194;11.546;2023-11-19T01:46:33;95909.41;;;6.32;100.00
29239;BME280;16267;48.194;11.546;2023-11-19T01:49:00;95901.44;;;6.35;100.00
29239;BME280;16267;48.194;11.546;2023-11-19T01:51:28;95895.38;;;6.42;100.00
29239;BME280;16267;48.194;11.546;2023-11-19T01:53:55;95891.19;;;6.41;100.00
29239;BME280;16267;48.194;11.546;2023-11-19T01:56:23;95898.09;;;6.53;100.00
29239;BME280;16267;48.194;11.546;2023-11-19T01:58:51;95895.06;;;6.58;100.00
29239;BME280;16267;48.194;11.546;2023-11-19T02:01:17;95884.41;;;6.61;100.00
29239;BME280;16267;48.194;11.546;2023-11-19T02:03:44;95879.47;;;6.70;100.00
29239;BME280;16267;48.194;11.546;2023-11-19T02:06:10;95879.09;;;6.76;100.00
29239;BME280;16267;48.194;11.546;2023-11-19T02:08:37;95868.81;;;6.81;100.00
29239;BME280;16267;48.194;11.546;2023-11-19T02:11:04;95876.84;;;6.85;100.00
29239;BME280;16267;48.194;11.546;2023-11-19T02:13:32;95866.56;;;6.90;100.00
29239;BME280;16267;48.194;11.546;2023-11-19T02:15:59;95858.56;;;6.94;100.00
29239;BME280;16267;48.194;11.546;2023-11-19T02:18:28;95851.72;;;7.00;100.00
29239;BME280;16267;48.194;11.546;2023-11-19T02:20:58;95850.94;;;7.03;100.00
29239;BME280;16267;48.194;11.546;2023-11-19T02:23:27;95844.09;;;7.09;100.00
29239;BME280;16267;48.194;11.546;2023-11-19T02:26:08;95833.44;;;7.13;100.00
29239;BME280;16267;48.194;11.546;2023-11-19T02:28:39;95836.84;;;7.13;100.00
29239;BME280;16267;48.194;11.546;2023-11-19T02:31:07;95826.94;;;7.18;100.00
29239;BME280;16267;48.194;11.546;2023-11-19T02:33:36;95826.94;;;7.25;100.00
29239;BME280;16267;48.194;11.546;2023-11-19T02:36:04;95832.28;;;7.28;100.00
29239;BME280;16267;48.194;11.546;2023-11-19T02:38:30;95818.53;;;7.33;100.00
29239;BME280;16267;48.194;11.546;2023-11-19T02:40:57;95818.16;;;7.38;100.00
29239;BME280;16267;48.194;11.546;2023-11-19T02:43:23;95812.47;;;7.40;100.00
29239;BME280;16267;48.194;11.546;2023-11-19T02:45:49;95811.28;;;7.45;100.00
29239;BME280;16267;48.194;11.546;2023-11-19T02:48:16;95808.63;;;7.48;100.00
29239;BME280;16267;48.194;11.546;2023-11-19T02:50:43;95809.00;;;7.50;100.00
29239;BME280;16267;48.194;11.546;2023-11-19T02:53:09;95804.03;;;7.52;100.00
29239;BME280;16267;48.194;11.546;2023-11-19T02:55:35;95795.25;;;7.59;100.00
29239;BME280;16267;48.194;11.546;2023-11-19T02:58:04;95790.28;;;7.61;100.00
29239;BME280;16267;48.194;11.546;2023-11-19T03:00:45;95788.75;;;7.64;100.00
29239;BME280;16267;48.194;11.546;2023-11-19T03:03:20;95786.84;;;7.68;100.00
29239;BME280;16267;48.194;11.546;2023-11-19T03:05:47;95784.94;;;7.72;100.00
29239;BME280;16267;48.194;11.546;2023-11-19T03:08:14;95784.16;;;7.75;100.00
29239;BME280;16267;48.194;11.546;2023-11-19T03:10:40;95776.91;;;7.79;100.00
29239;BME280;16267;48.194;11.546;2023-11-19T03:13:06;95776.88;;;7.82;100.00
29239;BME280;16267;48.194;11.546;2023-11-19T03:15:37;95771.16;;;7.88;100.00
29239;BME280;16267;48.194;11.546;2023-11-19T03:18:03;95771.50;;;7.90;100.00
29239;BME280;16267;48.194;11.546;2023-11-19T03:20:29;95777.97;;;7.92;100.00
29239;BME280;16267;48.194;11.546;2023-11-19T03:22:56;95772.66;;;7.96;100.00
29239;BME280;16267;48.194;11.546;2023-11-19T03:25:25;95772.63;;;7.99;100.00
29239;BME280;16267;48.194;11.546;2023-11-19T03:28:01;95763.44;;;8.04;100.00
29239;BME280;16267;48.194;11.546;2023-11-19T03:30:29;95765.34;;;8.07;100.00
29239;BME280;16267;48.194;11.546;2023-11-19T03:32:56;95767.63;;;8.12;100.00
29239;BME280;16267;48.194;11.546;2023-11-19T03:35:22;95772.19;;;8.15;100.00
29239;BME280;16267;48.194;11.546;2023-11-19T03:37:49;95779.03;;;8.20;100.00
29239;BME280;16267;48.194;11.546;2023-11-19T03:40:15;95767.16;;;8.24;100.00
29239;BME280;16267;48.194;11.546;2023-11-19T03:42:41;95771.72;;;8.27;100.00
29239;BME280;16267;48.194;11.546;2023-11-19T03:45:08;95771.31;;;8.33;100.00
29239;BME280;16267;48.194;11.546;2023-11-19T03:47:38;95775.13;;;8.35;100.00
29239;BME280;16267;48.194;11.546;2023-11-19T03:50:05;95776.69;;;8.40;100.00
29239;BME280;16267;48.194;11.546;2023-11-19T03:52:32;95769.00;;;8.42;100.00
29239;BME280;16267;48.194;11.546;2023-11-19T03:54:58;95776.25;;;8.48;100.00
29239;BME280;16267;48.194;11.546;2023-11-19T03:57:24;95765.53;;;8.52;100.00
29239;BME280;16267;48.194;11.546;2023-11-19T03:59:50;95768.16;;;8.56;100.00
29239;BME280;16267;48.194;11.546;2023-11-19T04:02:17;95769.69;;;8.60;100.00
29239;BME280;16267;48.194;11.546;2023-11-19T04:04:43;95763.16;;;8.65;100.00
29239;BME280;16267;48.194;11.546;2023-11-19T04:07:09;95775.34;;;8.69;100.00
29239;BME280;16267;48.194;11.546;2023-11-19T04:09:35;95766.91;;;8.75;100.00
29239;BME280;16267;48.194;11.546;2023-11-19T04:12:06;95773.75;;;8.79;100.00
29239;BME280;16267;48.194;11.546;2023-11-19T04:14:32;95767.22;;;8.84;100.00
29239;BME280;16267;48.194;11.546;2023-11-19T04:16:59;95771.03;;;8.86;100.00
29239;BME280;16267;48.194;11.546;2023-11-19T04:19:25;95771.41;;;8.88;100.00
29239;BME280;16267;48.194;11.546;2023-11-19T04:21:51;95775.97;;;8.91;100.00
29239;BME280;16267;48.194;11.546;2023-11-19T04:24:18;95775.91;;;8.99;100.00
29239;BME280;16267;48.194;11.546;2023-11-19T04:26:45;95772.03;;;9.03;100.00
29239;BME280;16267;48.194;11.546;2023-11-19T04:29:14;95783.88;;;9.06;100.00
29239;BME280;16267;48.194;11.546;2023-11-19T04:31:41;95775.44;;;9.11;100.00
29239;BME280;16267;48.194;11.546;2023-11-19T04:34:07;95772.38;;;9.12;100.00
29239;BME280;16267;48.194;11.546;2023-11-19T04:36:34;95776.13;;;9.19;100.00
29239;BME280;16267;48.194;11.546;2023-11-19T04:39:00;95768.06;;;9.22;100.00
29239;BME280;16267;48.194;11.546;2023-11-19T04:41:27;95773.03;;;9.24;100.00
29239;BME280;16267;48.194;11.546;2023-11-19T04:43:54;95780.66;;;9.25;100.00
29239;BME280;16267;48.194;11.546;2023-11-19T04:46:20;95775.69;;;9.27;100.00
29239;BME280;16267;48.194;11.546;2023-11-19T04:48:46;95770.38;;;9.24;100.00
29239;BME280;16267;48.194;11.546;2023-11-19T04:51:13;95771.50;;;9.26;100.00
29239;BME280;16267;48.194;11.546;2023-11-19T04:53:39;95776.00;;;9.33;100.00
29239;BME280;16267;48.194;11.546;2023-11-19T04:56:09;95777.97;;;9.29;100.00
29239;BME280;16267;48.194;11.546;2023-11-19T04:58:36;95787.81;;;9.39;100.00
29239;BME280;16267;48.194;11.546;2023-11-19T05:01:03;95789.31;;;9.44;100.00
29239;BME280;16267;48.194;11.546;2023-11-19T05:03:30;95782.78;;;9.45;100.00
29239;BME280;16267;48.194;11.546;2023-11-19T05:05:57;95791.94;;;9.47;100.00
29239;BME280;16267;48.194;11.546;2023-11-19T05:08:23;95797.31;;;9.47;100.00
29239;BME280;16267;48.194;11.546;2023-11-19T05:10:50;95798.84;;;9.48;100.00
29239;BME280;16267;48.194;11.546;2023-11-19T05:13:16;95796.88;;;9.52;100.00
29239;BME280;16267;48.194;11.546;2023-11-19T05:15:43;95790.41;;;9.50;100.00
29239;BME280;16267;48.194;11.546;2023-11-19T05:18:09;95793.41;;;9.55;100.00
29239;BME280;16267;48.194;11.546;2023-11-19T05:20:35;95793.03;;;9.57;100.00
29239;BME280;16267;48.194;11.546;2023-11-19T05:23:01;95796.09;;;9.55;100.00
29239;BME280;16267;48.194;11.546;2023-11-19T05:25:28;95795.66;;;9.60;100.00
29239;BME280;16267;48.194;11.546;2023-11-19T05:27:54;95805.25;;;9.58;100.00
29239;BME280;16267;48.194;11.546;2023-11-19T05:30:20;95813.63;;;9.64;100.00
29239;BME280;16267;48.194;11.546;2023-11-19T05:32:46;95809.78;;;9.65;100.00
29239;BME280;16267;48.194;11.546;2023-11-19T05:35:12;95805.56;;;9.67;100.00
29239;BME280;16267;48.194;11.546;2023-11-19T05:37:39;95804.44;;;9.61;100.00
29239;BME280;16267;48.194;11.546;2023-11-19T05:40:06;95803.63;;;9.68;100.00
29239;BME280;16267;48.194;11.546;2023-11-19T05:42:40;95806.66;;;9.70;100.00
29239;BME280;16267;48.194;11.546;2023-11-19T05:45:07;95802.53;;;9.61;100.00
29239;BME280;16267;48.194;11.546;2023-11-19T05:47:34;95810.56;;;9.65;100.00
29239;BME280;16267;48.194;11.546;2023-11-19T05:50:00;95815.16;;;9.65;100.00
29239;BME280;16267;48.194;11.546;2023-11-19T05:52:27;95811.69;;;9.68;100.00
29239;BME280;16267;48.194;11.546;2023-11-19T05:54:55;95804.31;;;9.75;100.00
29239;BME280;16267;48.194;11.546;2023-11-19T05:57:22;95797.06;;;9.72;100.00
29239;BME280;16267;48.194;11.546;2023-11-19T05:59:51;95802.38;;;9.79;100.00
29239;BME280;16267;48.194;11.546;2023-11-19T06:02:17;95799.63;;;9.83;100.00
29239;BME280;16267;48.194;11.546;2023-11-19T06:04:43;95791.59;;;9.83;100.00
29239;BME280;16267;48.194;11.546;2023-11-19T06:07:13;95800.00;;;9.85;100.00
29239;BME280;16267;48.194;11.546;2023-11-19T06:09:41;95808.09;;;9.81;100.00
29239;BME280;16267;48.194;11.546;2023-11-19T06:12:07;95805.44;;;9.78;100.00
29239;BME280;16267;48.194;11.546;2023-11-19T06:14:33;95814.91;;;9.90;100.00
29239;BME280;16267;48.194;11.546;2023-11-19T06:16:59;95811.09;;;9.87;100.00
29239;BME280;16267;48.194;11.546;2023-11-19T06:19:26;95808.81;;;9.86;100.00
29239;BME280;16267;48.194;11.546;2023-11-19T06:21:52;95801.88;;;9.88;100.00
29239;BME280;16267;48.194;11.546;2023-11-19T06:24:18;95797.66;;;9.91;100.00
29239;BME280;16267;48.194;11.546;2023-11-19T06:26:45;95799.94;;;9.92;100.00
29239;BME280;16267;48.194;11.546;2023-11-19T06:29:11;95805.25;;;9.96;100.00
29239;BME280;16267;48.194;11.546;2023-11-19T06:31:40;95799.56;;;9.90;100.00
29239;BME280;16267;48.194;11.546;2023-11-19T06:34:06;95806.75;;;10.00;100.00
29239;BME280;16267;48.194;11.546;2023-11-19T06:36:32;95807.13;;;9.99;100.00
29239;BME280;16267;48.194;11.546;2023-11-19T06:38:58;95809.44;;;10.00;100.00
29239;BME280;16267;48.194;11.546;2023-11-19T06:41:24;95802.09;;;10.04;100.00
29239;BME280;16267;48.194;11.546;2023-11-19T06:43:50;95802.81;;;10.09;100.00
29239;BME280;16267;48.194;11.546;2023-11-19T06:46:18;95803.16;;;10.11;100.00
29239;BME280;16267;48.194;11.546;2023-11-19T06:48:45;95807.38;;;10.12;100.00
29239;BME280;16267;48.194;11.546;2023-11-19T06:51:12;95805.09;;;10.10;100.00
29239;BME280;16267;48.194;11.546;2023-11-19T06:53:38;95811.97;;;10.11;100.00
29239;BME280;16267;48.194;11.546;2023-11-19T06:56:19;95810.06;;;10.12;100.00
29239;BME280;16267;48.194;11.546;2023-11-19T06:58:45;95813.13;;;10.10;100.00
29239;BME280;16267;48.194;11.546;2023-11-19T07:01:11;95813.88;;;10.14;100.00
29239;BME280;16267;48.194;11.546;2023-11-19T07:03:37;95815.44;;;10.12;100.00
29239;BME280;16267;48.194;11.546;2023-11-19T07:06:04;95813.06;;;10.17;100.00
29239;BME280;16267;48.194;11.546;2023-11-19T07:08:31;95819.94;;;10.18;100.00
29239;BME280;16267;48.194;11.546;2023-11-19T07:10:57;95820.31;;;10.20;100.00
29239;BME280;16267;48.194;11.546;2023-11-19T07:13:23;95817.22;;;10.22;100.00
29239;BME280;16267;48.194;11.546;2023-11-19T07:15:49;95819.13;;;10.21;100.00
29239;BME280;16267;48.194;11.546;2023-11-19T07:18:15;95825.97;;;10.30;100.00
29239;BME280;16267;48.194;11.546;2023-11-19T07:20:42;95817.13;;;10.33;100.00
29239;BME280;16267;48.194;11.546;2023-11-19T07:23:08;95818.66;;;10.34;100.00
29239;BME280;16267;48.194;11.546;2023-11-19T07:25:34;95822.03;;;10.38;100.00
29239;BME280;16267;48.194;11.546;2023-11-19T07:28:01;95818.91;;;10.43;100.00
29239;BME280;16267;48.194;11.546;2023-11-19T07:30:30;95823.13;;;10.44;100.00
29239;BME280;16267;48.194;11.546;2023-11-19T07:32:57;95834.56;;;10.48;100.00
29239;BME280;16267;48.194;11.546;2023-11-19T07:35:23;95837.56;;;10.54;100.00
29239;BME280;16267;48.194;11.546;2023-11-19T07:37:49;95834.88;;;10.54;100.00
29239;BME280;16267;48.194;11.546;2023-11-19T07:40:16;95850.22;;;10.53;100.00
29239;BME280;16267;48.194;11.546;2023-11-19T07:42:42;95855.56;;;10.57;100.00
29239;BME280;16267;48.194;11.546;2023-11-19T07:45:08;95858.94;;;10.61;100.00
29239;BME280;16267;48.194;11.546;2023-11-19T07:47:35;95861.63;;;10.61;100.00
29239;BME280;16267;48.194;11.546;2023-11-19T07:50:01;95865.47;;;10.60;100.00
29239;BME280;16267;48.194;11.546;2023-11-19T07:52:27;95858.59;;;10.59;100.00
29239;BME280;16267;48.194;11.546;2023-11-19T07:54:54;95858.19;;;10.60;100.00
29239;BME280;16267;48.194;11.546;2023-11-19T07:57:21;95857.34;;;10.67;100.00
29239;BME280;16267;48.194;11.546;2023-11-19T07:59:47;95862.66;;;10.70;100.00
29239;BME280;16267;48.194;11.546;2023-11-19T08:02:13;95867.59;;;10.76;100.00
29239;BME280;16267;48.194;11.546;2023-11-19T08:04:40;95851.81;;;10.78;100.00
29239;BME280;16267;48.194;11.546;2023-11-19T08:07:10;95852.19;;;10.80;100.00
29239;BME280;16267;48.194;11.546;2023-11-19T08:09:37;95853.66;;;10.84;100.00
29239;BME280;16267;48.194;11.546;2023-11-19T08:12:04;95864.41;;;10.84;100.00
29239;BME280;16267;48.194;11.546;2023-11-19T08:14:30;95865.09;;;10.88;100.00
29239;BME280;16267;48.194;11.546;2023-11-19T08:16:56;95860.09;;;10.90;100.00
29239;BME280;16267;48.194;11.546;2023-11-19T08:19:22;95858.91;;;10.91;100.00
29239;BME280;16267;48.194;11.546;2023-11-19T08:21:49;95863.09;;;10.96;100.00
29239;BME280;16267;48.194;11.546;2023-11-19T08:24:15;95861.91;;;10.97;100.00
29239;BME280;16267;48.194;11.546;2023-11-19T08:26:42;95857.66;;;11.00;100.00
29239;BME280;16267;48.194;11.546;2023-11-19T08:29:08;95860.66;;;11.05;100.00
29239;BME280;16267;48.194;11.546;2023-11-19T08:31:35;95869.47;;;11.06;100.00
29239;BME280;16267;48.194;11.546;2023-11-19T08:34:01;95872.88;;;11.10;100.00
29239;BME280;16267;48.194;11.546;2023-11-19T08:36:27;95870.94;;;11.10;100.00
29239;BME280;16267;48.194;11.546;2023-11-19T08:38:54;95879.00;;;11.10;100.00
29239;BME280;16267;48.194;11.546;2023-11-19T08:41:21;95875.84;;;11.15;100.00
29239;BME280;16267;48.194;11.546;2023-11-19T08:43:47;95868.91;;;11.18;100.00
29239;BME280;16267;48.194;11.546;2023-11-19T08:46:13;95863.91;;;11.20;100.00
29239;BME280;16267;48.194;11.546;2023-11-19T08:48:40;95871.59;;;11.18;100.00
29239;BME280;16267;48.194;11.546;2023-11-19T08:51:06;95875.34;;;11.24;100.00
29239;BME280;16267;48.194;11.546;2023-11-19T08:53:33;95870.25;;;11.30;100.00
29239;BME280;16267;48.194;11.546;2023-11-19T08:55:59;95877.19;;;11.31;100.00
29239;BME280;16267;48.194;11.546;2023-11-19T08:58:26;95876.34;;;11.34;100.00
29239;BME280;16267;48.194;11.546;2023-11-19T09:00:52;95869.91;;;11.28;100.00
29239;BME280;16267;48.194;11.546;2023-11-19T09:03:18;95866.81;;;11.29;100.00
29239;BME280;16267;48.194;11.546;2023-11-19T09:05:46;95873.97;;;11.39;100.00
29239;BME280;16267;48.194;11.546;2023-11-19T09:08:12;95869.00;;;11.38;100.00
29239;BME280;16267;48.194;11.546;2023-11-19T09:10:38;95859.34;;;11.41;100.00
29239;BME280;16267;48.194;11.546;2023-11-19T09:13:05;95859.78;;;11.39;100.00
29239;BME280;16267;48.194;11.546;2023-11-19T09:15:31;95855.84;;;11.44;100.00
29239;BME280;16267;48.194;11.546;2023-11-19T09:17:57;95865.31;;;11.52;100.00
29239;BME280;16267;48.194;11.546;2023-11-19T09:20:23;95870.94;;;11.61;100.00
29239;BME280;16267;48.194;11.546;2023-11-19T09:22:49;95878.19;;;11.64;100.00
29239;BME280;16267;48.194;11.546;2023-11-19T09:25:17;95881.22;;;11.66;100.00
29239;BME280;16267;48.194;11.546;2023-11-19T09:27:44;95879.19;;;11.74;100.00
29239;BME280;16267;48.194;11.546;2023-11-19T09:30:10;95880.75;;;11.71;100.00
29239;BME280;16267;48.194;11.546;2023-11-19T09:32:36;95880.06;;;11.67;100.00
29239;BME280;16267;48.194;11.546;2023-11-19T09:35:06;95885.72;;;11.73;100.00
29239;BME280;16267;48.194;11.546;2023-11-19T09:37:32;95882.22;;;11.76;100.00
29239;BME280;16267;48.194;11.546;2023-11-19T09:39:58;95888.00;;;11.74;100.00
29239;BME280;16267;48.194;11.546;2023-11-19T09:42:25;95898.06;;;11.70;100.00
29239;BME280;16267;48.194;11.546;2023-11-19T09:44:54;95891.03;;;11.76;100.00
29239;BME280;16267;48.194;11.546;2023-11-19T09:47:22;95882.09;;;11.83;100.00
29239;BME280;16267;48.194;11.546;2023-11-19T09:49:49;95882.81;;;11.87;100.00
29239;BME280;16267;48.194;11.546;2023-11-19T09:52:16;95867.88;;;11.82;100.00
29239;BME280;16267;48.194;11.546;2023-11-19T09:54:41;95881.53;;;11.95;100.00
29239;BME280;16267;48.194;11.546;2023-11-19T09:57:07;95871.59;;;11.92;100.00
29239;BME280;16267;48.194;11.546;2023-11-19T09:59:37;95864.56;;;11.98;100.00
29239;BME280;16267;48.194;11.546;2023-11-19T10:02:04;95854.44;;;12.06;100.00
29239;BME280;16267;48.194;11.546;2023-11-19T10:04:30;95851.28;;;12.11;100.00
29239;BME280;16267;48.194;11.546;2023-11-19T10:07:00;95847.69;;;12.18;100.00
29239;BME280;16267;48.194;11.546;2023-11-19T10:09:25;95842.72;;;12.16;100.00
29239;BME280;16267;48.194;11.546;2023-11-19T10:11:51;95844.09;;;12.24;100.00
29239;BME280;16267;48.194;11.546;2023-11-19T10:14:23;95837.88;;;12.27;100.00
29239;BME280;16267;48.194;11.546;2023-11-19T10:16:49;95837.56;;;12.25;100.00
29239;BME280;16267;48.194;11.546;2023-11-19T10:19:21;95836.94;;;12.38;100.00
29239;BME280;16267;48.194;11.546;2023-11-19T10:21:47;95844.94;;;12.61;100.00
29239;BME280;16267;48.194;11.546;2023-11-19T10:24:13;95842.34;;;12.74;100.00
29239;BME280;16267;48.194;11.546;2023-11-19T10:26:38;95832.47;;;12.67;100.00
29239;BME280;16267;48.194;11.546;2023-11-19T10:29:05;95840.97;;;12.66;100.00
29239;BME280;16267;48.194;11.546;2023-11-19T10:31:31;95833.59;;;12.70;100.00
29239;BME280;16267;48.194;11.546;2023-11-19T10:33:57;95832.66;;;12.77;100.00
29239;BME280;16267;48.194;11.546;2023-11-19T10:36:23;95811.03;;;12.80;100.00
29239;BME280;16267;48.194;11.546;2023-11-19T10:39:02;95817.97;;;12.81;100.00
29239;BME280;16267;48.194;11.546;2023-11-19T10:41:32;95808.34;;;12.80;100.00
29239;BME280;16267;48.194;11.546;2023-11-19T10:44:01;95816.00;;;12.82;100.00
29239;BME280;16267;48.194;11.546;2023-11-19T10:46:41;95807.19;;;12.81;100.00
29239;BME280;16267;48.194;11.546;2023-11-19T10:49:08;95810.44;;;13.42;100.00
29239;BME280;16267;48.194;11.546;2023-11-19T10:51:34;95814.25;;;13.28;100.00
29239;BME280;16267;48.194;11.546;2023-11-19T10:54:04;95805.03;;;13.25;100.00
29239;BME280;16267;48.194;11.546;2023-11-19T10:56:33;95814.72;;;13.23;100.00
29239;BME280;16267;48.194;11.546;2023-11-19T10:59:00;95798.72;;;13.32;100.00
29239;BME280;16267;48.194;11.546;2023-11-19T11:01:39;95806.41;;;13.50;100.00
29239;BME280;16267;48.194;11.546;2023-11-19T11:04:14;95815.44;;;13.89;100.00
29239;BME280;16267;48.194;11.546;2023-11-19T11:06:43;95805.91;;;13.84;99.89
29239;BME280;16267;48.194;11.546;2023-11-19T11:09:11;95807.44;;;14.14;96.42
29239;BME280;16267;48.194;11.546;2023-11-19T11:11:40;95787.63;;;14.04;93.65
29239;BME280;16267;48.194;11.546;2023-11-19T11:14:13;95791.94;;;14.02;93.97
29239;BME280;16267;48.194;11.546;2023-11-19T11:16:43;95798.63;;;13.97;93.60
29239;BME280;16267;48.194;11.546;2023-11-19T11:19:10;95791.81;;;14.35;95.11
29239;BME280;16267;48.194;11.546;2023-11-19T11:21:40;95788.88;;;14.58;91.80
29239;BME280;16267;48.194;11.546;2023-11-19T11:27:52;95799.94;;;14.47;91.60
29239;BME280;16267;48.194;11.546;2023-11-19T11:30:45;95788.78;;;14.33;92.70
29239;BME280;16267;48.194;11.546;2023-11-19T11:33:35;95784.69;;;14.41;94.46
29239;BME280;16267;48.194;11.546;2023-11-19T11:36:19;95785.94;;;14.53;94.60
29239;BME280;16267;48.194;11.546;2023-11-19T11:38:49;95793.78;;;14.47;94.27
29239;BME280;16267;48.194;11.546;2023-11-19T11:41:19;95787.31;;;14.44;91.70
29239;BME280;16267;48.194;11.546;2023-11-19T11:43:55;95771.19;;;14.41;91.34
29239;BME280;16267;48.194;11.546;2023-11-19T11:54:25;95772.81;;;14.38;90.64
29239;BME280;16267;48.194;11.546;2023-11-19T11:57:11;95774.00;;;14.37;87.82
29239;BME280;16267;48.194;11.546;2023-11-19T11:59:47;95772.28;;;14.43;89.55
29239;BME280;16267;48.194;11.546;2023-11-19T12:02:22;95772.94;;;14.47;89.47
29239;BME280;16267;48.194;11.546;2023-11-19T12:04:53;95771.00;;;14.48;89.46
29239;BME280;16267;48.194;11.546;2023-11-19T12:07:24;95771.06;;;14.32;86.89
29239;BME280;16267;48.194;11.546;2023-11-19T12:10:06;95768.16;;;14.26;87.56
29239;BME280;16267;48.194;11.546;2023-11-19T12:12:33;95757.69;;;14.28;85.47
29239;BME280;16267;48.194;11.546;2023-11-19T12:15:06;95770.44;;;14.40;88.40
29239;BME280;16267;48.194;11.546;2023-11-19T12:20:07;95775.09;;;14.40;85.90
29239;BME280;16267;48.194;11.546;2023-11-19T12:22:42;95784.59;;;14.44;86.37
29239;BME280;16267;48.194;11.546;2023-11-19T12:25:10;95759.91;;;14.59;87.53
29239;BME280;16267;48.194;11.546;2023-11-19T12:27:42;95747.03;;;14.63;86.40
29239;BME280;16267;48.194;11.546;2023-11-19T12:30:09;95748.13;;;14.65;85.84
29239;BME280;16267;48.194;11.546;2023-11-19T12:32:42;95741.63;;;14.63;83.88
29239;BME280;16267;48.194;11.546;2023-11-19T12:35:09;95739.16;;;14.68;84.93
29239;BME280;16267;48.194;11.546;2023-11-19T12:40:25;95730.72;;;14.79;84.46
29239;BME280;16267;48.194;11.546;2023-11-19T12:42:52;95729.34;;;14.75;83.80
29239;BME280;16267;48.194;11.546;2023-11-19T12:45:19;95732.47;;;14.73;82.52
29239;BME280;16267;48.194;11.546;2023-11-19T12:47:46;95730.09;;;14.62;81.36
29239;BME280;16267;48.194;11.546;2023-11-19T12:50:13;95732.38;;;14.64;81.25
29239;BME280;16267;48.194;11.546;2023-11-19T12:52:39;95727.38;;;14.62;80.81
29239;BME280;16267;48.194;11.546;2023-11-19T12:55:27;95721.97;;;14.75;82.61
29239;BME280;16267;48.194;11.546;2023-11-19T12:57:55;95727.59;;;14.81;82.89
29239;BME280;16267;48.194;11.546;2023-11-19T13:00:25;95714.72;;;14.85;81.80
29239;BME280;16267;48.194;11.546;2023-11-19T13:02:54;95728.69;;;14.70;79.86
29239;BME280;16267;48.194;11.546;2023-11-19T13:05:33;95716.47;;;14.79;81.37